Japan Airlines Virtual Airport Information Service

Kagoshima Airport

ICAO: RJFK Country: Japan
Latitude: 31.8034 Longitude: 130.719
Latest Arrival : APJ191 (RJBB-RJFK) Latest Departure : JAC3723 (RJFK-RJKA)


WX CaptureLIVE
Data provided by noaa.gov | Fetched at 14:23:10

METAR : RJFK 061200Z 30004KT 260V350 8000 FEW030 26/24 Q1014 RMK 1CU030 A2997

TAF : RJFK 061108Z 0612/0718 35003KT 8000 FEW008 SCT040 BECMG 0622/0700 20010KT BECMG 0706/0709 25005KT


Runway Data for RJFK
Data provided by openaviationdata.com

Runway ID Mag Var Hdg Length Elevation Surface ILS Freq ILS Id ILS Slope
16 -6 156° 9856 ft 892 ft Asphalt -- -- --
34 -6 336° 9856 ft 892 ft Asphalt 111.7 IKG 3

Kagoshima Airport, Japan
Use only for reference purposes



Not for navigational purposes.